createdAt,value
2023-03-27T00:00:38.492Z,45.5143
2023-03-27T00:01:40.105Z,45.4739
2023-03-27T00:02:41.958Z,45.4474
2023-03-27T00:03:43.525Z,45.7003
2023-03-27T00:04:45.062Z,45.6085
2023-03-27T00:05:46.733Z,45.6900
2023-03-27T00:06:48.357Z,45.7529
2023-03-27T00:07:50.016Z,45.6982
2023-03-27T00:08:51.657Z,45.5598
2023-03-27T00:09:53.327Z,45.8331
2023-03-27T00:10:55.178Z,45.8839
2023-03-27T00:11:56.617Z,45.9683
2023-03-27T00:12:58.255Z,46.0594
2023-03-27T00:13:59.926Z,45.9075
2023-03-27T00:15:01.537Z,45.9853
2023-03-27T00:16:03.254Z,46.0528
2023-03-27T00:17:04.883Z,46.0035
2023-03-27T00:18:06.552Z,45.8652
2023-03-27T00:19:08.150Z,45.9070
2023-03-27T00:20:09.833Z,45.9333
2023-03-27T00:21:11.513Z,45.9022
2023-03-27T00:22:13.129Z,46.1054
2023-03-27T00:23:14.767Z,45.9778
2023-03-27T00:24:16.435Z,45.9097
2023-03-27T00:25:18.063Z,45.9149
2023-03-27T00:26:19.758Z,45.8983
2023-03-27T00:27:21.371Z,46.0193
2023-03-27T00:28:23.030Z,45.9768
2023-03-27T00:29:24.672Z,45.9077
2023-03-27T00:30:26.325Z,46.0943
2023-03-27T00:31:28.079Z,46.0372
2023-03-27T00:32:29.653Z,46.0683
2023-03-27T00:33:31.300Z,46.1041
2023-03-27T00:34:32.924Z,46.0589
2023-03-27T00:35:34.672Z,46.2026
2023-03-27T00:36:36.248Z,46.1761
2023-03-27T00:37:37.897Z,46.1612
2023-03-27T00:38:39.740Z,46.1395
2023-03-27T00:39:41.222Z,46.1534
2023-03-27T00:40:42.855Z,46.1784
2023-03-27T00:41:44.531Z,46.2019
2023-03-27T00:42:46.152Z,46.2078
2023-03-27T00:43:47.816Z,46.1833
2023-03-27T00:44:49.442Z,46.1280
2023-03-27T00:45:51.126Z,46.1293
2023-03-27T00:46:52.803Z,46.1751
2023-03-27T00:47:54.428Z,46.2639
2023-03-27T00:48:56.047Z,46.3350
2023-03-27T00:49:57.728Z,46.2685
2023-03-27T00:50:59.356Z,46.2514
2023-03-27T00:52:01.058Z,46.1984
2023-03-27T00:53:02.657Z,46.2034
2023-03-27T00:54:04.329Z,46.2896
2023-03-27T00:55:05.985Z,46.2725
2023-03-27T00:56:07.650Z,46.3593
2023-03-27T00:57:09.333Z,46.2405
2023-03-27T00:58:10.946Z,46.3494
2023-03-27T00:59:12.606Z,46.2440
2023-03-27T01:00:14.282Z,46.3269
2023-03-27T01:01:15.904Z,46.3521
2023-03-27T01:02:17.596Z,46.4337
2023-03-27T01:03:19.275Z,46.3594
2023-03-27T01:04:20.849Z,46.3721
2023-03-27T01:05:22.487Z,46.2812
2023-03-27T01:06:24.149Z,46.3282
2023-03-27T01:07:25.788Z,46.2704
2023-03-27T01:08:27.451Z,46.3439
2023-03-27T01:09:29.084Z,46.2803
2023-03-27T01:10:30.753Z,46.3554
2023-03-27T01:11:32.386Z,46.3480
2023-03-27T01:12:34.069Z,46.3651
2023-03-27T01:13:35.693Z,46.2718
2023-03-27T01:14:37.362Z,46.3681
2023-03-27T01:15:39.013Z,46.4257
2023-03-27T01:16:40.663Z,46.4157
2023-03-27T01:17:42.358Z,46.4182
2023-03-27T01:18:43.946Z,46.4404
2023-03-27T01:19:45.594Z,46.4076
2023-03-27T01:20:47.345Z,46.4192
2023-03-27T01:21:48.904Z,46.3967
2023-03-27T01:22:50.599Z,46.4155
2023-03-27T01:23:59.354Z,46.3231
2023-03-27T01:24:53.889Z,46.3577
2023-03-27T01:25:55.500Z,46.4080
2023-03-27T01:26:57.168Z,46.3996
2023-03-27T01:27:58.832Z,46.4471
2023-03-27T01:29:00.477Z,46.4147
2023-03-27T01:30:02.109Z,46.4107
2023-03-27T01:31:03.798Z,46.4770
2023-03-27T01:32:05.414Z,46.4930
2023-03-27T01:33:07.174Z,46.4751
2023-03-27T01:34:08.718Z,46.4131
2023-03-27T01:35:10.398Z,46.4316
2023-03-27T01:36:12.042Z,46.4452
2023-03-27T01:37:13.706Z,46.4203
2023-03-27T01:38:15.355Z,46.4658
2023-03-27T01:39:17.013Z,46.5144
2023-03-27T01:40:18.639Z,46.5643
2023-03-27T01:41:20.316Z,46.5009
2023-03-27T01:42:21.948Z,46.4995
2023-03-27T01:43:23.647Z,46.5764
2023-03-27T01:44:25.247Z,46.5758
2023-03-27T01:45:26.919Z,46.4714
2023-03-27T01:46:28.587Z,46.5081
2023-03-27T01:47:30.237Z,46.5539
2023-03-27T01:48:31.929Z,46.5165
2023-03-27T01:49:33.531Z,46.5088
2023-03-27T01:50:35.152Z,46.4952
2023-03-27T01:51:36.839Z,46.5127
2023-03-27T01:52:38.488Z,46.6181
2023-03-27T01:53:40.294Z,46.6009
2023-03-27T01:54:41.782Z,46.5660
2023-03-27T01:55:43.441Z,46.5398
2023-03-27T01:56:45.091Z,46.5580
2023-03-27T01:57:48.961Z,46.5350
2023-03-27T01:58:48.405Z,46.5338
2023-03-27T01:59:50.061Z,46.5343
2023-03-27T02:01:04.110Z,46.5712
2023-03-27T02:01:53.357Z,46.5584
2023-03-27T02:02:55.009Z,46.6311
2023-03-27T02:03:56.701Z,46.6665
2023-03-27T02:04:58.322Z,46.6090
2023-03-27T02:05:59.962Z,46.6177
2023-03-27T02:07:01.597Z,46.6858
2023-03-27T02:08:03.282Z,46.6649
2023-03-27T02:09:04.911Z,46.6221
2023-03-27T02:10:06.581Z,46.6059
2023-03-27T02:11:08.284Z,46.6377
2023-03-27T02:12:09.946Z,46.6595
2023-03-27T02:13:11.584Z,46.6678
2023-03-27T02:14:13.278Z,46.6414
2023-03-27T02:15:23.659Z,46.6526
2023-03-27T02:16:16.641Z,46.6912
2023-03-27T02:17:18.201Z,46.6153
2023-03-27T02:18:19.881Z,46.6624
2023-03-27T02:19:21.537Z,46.6599
2023-03-27T02:20:23.186Z,46.7009
2023-03-27T02:21:24.846Z,46.6894
2023-03-27T02:22:38.137Z,46.7095
2023-03-27T02:23:28.132Z,46.7070
2023-03-27T02:24:29.867Z,46.7238
2023-03-27T02:25:31.457Z,46.7616
2023-03-27T02:26:33.125Z,46.7689
2023-03-27T02:27:34.743Z,46.7716
2023-03-27T02:28:36.415Z,46.7489
2023-03-27T02:29:38.080Z,46.7142
2023-03-27T02:30:39.735Z,46.7195
2023-03-27T02:31:41.430Z,46.7663
2023-03-27T02:32:43.163Z,46.7380
2023-03-27T02:33:44.681Z,46.7940
2023-03-27T02:34:46.338Z,46.8399
2023-03-27T02:35:48.022Z,46.8710
2023-03-27T02:36:49.646Z,46.7980
2023-03-27T02:37:51.314Z,46.7595
2023-03-27T02:38:52.950Z,46.8074
2023-03-27T02:39:54.638Z,46.8120
2023-03-27T02:40:56.396Z,46.8078
2023-03-27T02:41:57.911Z,46.8352
2023-03-27T02:42:59.577Z,46.8328
2023-03-27T02:44:01.233Z,46.8164
2023-03-27T02:45:02.891Z,46.8691
2023-03-27T02:46:04.625Z,46.8810
2023-03-27T02:47:06.181Z,46.8767
2023-03-27T02:48:07.900Z,46.9372
2023-03-27T02:49:09.484Z,46.9869
2023-03-27T02:50:11.227Z,46.9979
2023-03-27T02:51:12.803Z,46.9697
2023-03-27T02:52:14.464Z,46.9502
2023-03-27T02:53:16.104Z,46.9812
2023-03-27T02:54:17.766Z,46.9358
2023-03-27T02:55:19.426Z,46.9292
2023-03-27T02:56:21.097Z,46.9778
2023-03-27T02:57:24.967Z,46.9177
2023-03-27T02:58:24.391Z,46.8961
2023-03-27T02:59:26.016Z,46.8893
2023-03-27T03:00:27.712Z,46.9736
2023-03-27T03:01:29.365Z,47.0505
2023-03-27T03:02:31.065Z,47.0336
2023-03-27T03:03:32.646Z,47.0454
2023-03-27T03:04:34.307Z,47.0319
2023-03-27T03:05:35.961Z,47.0696
2023-03-27T03:06:37.608Z,47.0343
2023-03-27T03:07:39.248Z,47.0028
2023-03-27T03:08:40.919Z,47.0100
2023-03-27T03:09:42.555Z,47.0541
2023-03-27T03:10:44.241Z,47.1018
2023-03-27T03:11:45.849Z,47.0909
2023-03-27T03:12:47.515Z,47.1240
2023-03-27T03:13:49.147Z,47.0710
2023-03-27T03:14:50.831Z,47.0904
2023-03-27T03:15:52.507Z,47.0809
2023-03-27T03:16:54.177Z,47.0656
2023-03-27T03:17:55.780Z,47.0598
2023-03-27T03:18:57.451Z,47.1102
2023-03-27T03:19:59.069Z,47.0988
2023-03-27T03:21:00.782Z,47.0960
2023-03-27T03:22:02.386Z,47.1074
2023-03-27T03:23:04.056Z,47.0938
2023-03-27T03:24:05.696Z,47.1073
2023-03-27T03:25:07.370Z,47.0884
2023-03-27T03:26:09.022Z,47.0979
2023-03-27T03:27:10.693Z,47.1601
2023-03-27T03:28:12.303Z,47.1382
2023-03-27T03:29:13.972Z,47.1443
2023-03-27T03:30:16.985Z,47.1793
2023-03-27T03:31:17.362Z,47.1690
2023-03-27T03:32:18.916Z,47.1623
2023-03-27T03:33:20.582Z,47.1884
2023-03-27T03:34:22.203Z,47.2192
2023-03-27T03:35:23.898Z,47.1959
2023-03-27T03:36:25.526Z,47.2090
2023-03-27T03:37:27.178Z,47.2135
2023-03-27T03:38:28.815Z,47.2111
2023-03-27T03:39:30.490Z,47.2082
2023-03-27T03:40:32.112Z,47.2111
2023-03-27T03:41:33.804Z,47.2396
2023-03-27T03:42:35.422Z,47.2599
2023-03-27T03:43:37.086Z,47.3084
2023-03-27T03:44:38.741Z,47.2712
2023-03-27T03:45:40.395Z,47.2740
2023-03-27T03:46:42.041Z,47.2374
2023-03-27T03:47:43.725Z,47.2460
2023-03-27T03:48:45.317Z,47.2302
2023-03-27T03:49:46.993Z,47.2115
2023-03-27T03:50:48.623Z,47.2526
2023-03-27T03:52:03.775Z,47.2324
2023-03-27T03:52:51.921Z,47.2509
2023-03-27T03:53:53.586Z,47.2273
2023-03-27T03:54:55.239Z,47.2450
2023-03-27T03:55:56.883Z,47.2236
2023-03-27T03:56:58.557Z,47.2845
2023-03-27T03:58:00.192Z,47.2482
2023-03-27T03:59:01.846Z,47.2428
2023-03-27T04:00:03.504Z,47.2361
2023-03-27T04:01:05.126Z,47.2541
2023-03-27T04:02:06.837Z,47.2703
2023-03-27T04:03:08.640Z,47.2634
2023-03-27T04:04:10.104Z,47.2483
2023-03-27T04:05:11.745Z,47.2418
2023-03-27T04:06:13.419Z,47.2662
2023-03-27T04:07:15.060Z,47.2753
2023-03-27T04:08:16.715Z,47.3223
2023-03-27T04:09:18.341Z,47.3112
2023-03-27T04:10:20.048Z,47.2757
2023-03-27T04:11:21.660Z,47.2671
2023-03-27T04:12:23.353Z,47.3048
2023-03-27T04:13:24.987Z,47.2963
2023-03-27T04:14:26.622Z,47.3746
2023-03-27T04:15:28.266Z,47.3696
2023-03-27T04:16:29.994Z,47.3666
2023-03-27T04:17:31.622Z,47.4006
2023-03-27T04:18:33.367Z,47.3871
2023-03-27T04:19:34.888Z,47.3414
2023-03-27T04:20:36.537Z,47.3220
2023-03-27T04:21:38.158Z,47.3538
2023-03-27T04:22:39.847Z,47.3640
2023-03-27T04:23:41.463Z,47.9788
2023-03-27T04:24:43.140Z,48.2210
2023-03-27T04:25:44.810Z,48.2435
2023-03-27T04:26:46.441Z,48.3752
2023-03-27T04:27:48.088Z,49.1222
2023-03-27T04:28:49.730Z,49.6317
2023-03-27T04:29:51.369Z,49.3030
2023-03-27T04:30:53.038Z,49.0404
2023-03-27T04:31:54.681Z,49.4886
2023-03-27T04:32:56.389Z,49.5112
2023-03-27T04:33:57.977Z,49.4170
2023-03-27T04:34:59.651Z,49.5906
2023-03-27T04:36:06.360Z,49.9855
2023-03-27T04:37:02.958Z,44.6063
2023-03-27T04:38:04.616Z,43.8382
2023-03-27T04:39:06.260Z,45.7468
2023-03-27T04:40:07.892Z,47.3939
2023-03-27T04:41:09.545Z,48.1610
2023-03-27T04:42:11.178Z,48.3729
2023-03-27T04:43:12.887Z,48.4737
2023-03-27T04:44:14.493Z,48.3731
2023-03-27T04:45:16.190Z,49.0572
2023-03-27T04:46:17.825Z,48.6927
2023-03-27T04:47:19.476Z,49.2791
2023-03-27T04:48:21.140Z,49.9582
2023-03-27T04:49:22.780Z,49.9744
2023-03-27T04:50:24.403Z,49.9248
2023-03-27T04:51:26.089Z,49.6210
2023-03-27T04:52:27.725Z,49.4662
2023-03-27T04:53:29.556Z,46.3540
2023-03-27T04:54:31.055Z,47.8907
2023-03-27T04:55:32.680Z,48.1564
2023-03-27T04:56:34.363Z,48.3733
2023-03-27T04:57:35.987Z,46.2926
2023-03-27T04:58:37.945Z,45.0636
2023-03-27T04:59:39.301Z,44.9108
2023-03-27T05:00:40.987Z,45.6822
2023-03-27T05:01:42.606Z,43.3783
2023-03-27T05:02:44.270Z,43.6570
2023-03-27T05:03:45.976Z,44.9166
2023-03-27T05:04:47.551Z,44.3492
2023-03-27T05:05:49.190Z,43.3395
2023-03-27T05:06:50.872Z,43.3154
2023-03-27T05:07:52.580Z,44.3015
2023-03-27T05:08:54.177Z,44.6344
2023-03-27T05:09:55.777Z,45.0100
2023-03-27T05:10:57.712Z,45.1519
2023-03-27T05:11:59.098Z,45.3815
2023-03-27T05:13:00.769Z,45.6971
2023-03-27T05:14:02.426Z,46.0834
2023-03-27T05:15:04.089Z,46.3885
2023-03-27T05:16:05.720Z,46.3513
2023-03-27T05:17:07.374Z,46.2958
2023-03-27T05:18:09.322Z,46.2504
2023-03-27T05:19:10.767Z,46.5217
2023-03-27T05:20:12.319Z,46.6371
2023-03-27T05:21:13.974Z,46.5507
2023-03-27T05:22:15.626Z,46.5793
2023-03-27T05:23:17.288Z,46.8161
2023-03-27T05:24:18.931Z,47.0447
2023-03-27T05:25:20.586Z,47.0977
2023-03-27T05:26:22.215Z,47.9559
2023-03-27T05:27:23.923Z,48.2648
2023-03-27T05:28:25.525Z,48.3313
2023-03-27T05:29:27.232Z,48.2564
2023-03-27T05:30:28.927Z,48.1291
2023-03-27T05:31:30.573Z,47.9886
2023-03-27T05:32:32.170Z,47.9514
2023-03-27T05:33:33.785Z,47.8613
2023-03-27T05:34:35.496Z,48.0244
2023-03-27T05:35:37.125Z,48.2675
2023-03-27T05:36:38.773Z,48.9569
2023-03-27T05:37:40.405Z,48.9610
2023-03-27T05:38:42.064Z,50.0902
2023-03-27T05:39:43.732Z,50.4338
2023-03-27T05:40:45.374Z,50.2350
2023-03-27T05:41:47.005Z,49.8152
2023-03-27T05:42:48.674Z,49.4044
2023-03-27T05:43:51.241Z,49.1189
2023-03-27T05:44:51.996Z,48.8837
2023-03-27T05:45:53.626Z,48.7534
2023-03-27T05:46:55.291Z,48.6074
2023-03-27T05:47:56.991Z,48.6033
2023-03-27T05:48:58.592Z,48.6185
2023-03-27T05:50:00.249Z,48.5108
2023-03-27T05:51:01.903Z,48.4729
2023-03-27T05:52:03.510Z,48.5121
2023-03-27T05:53:05.200Z,48.4988
2023-03-27T05:54:06.809Z,48.6527
2023-03-27T05:55:08.523Z,48.7559
2023-03-27T05:56:10.116Z,48.7480
2023-03-27T05:57:11.914Z,48.8273
2023-03-27T05:58:13.462Z,48.8351
2023-03-27T05:59:15.077Z,48.8333
2023-03-27T06:00:16.762Z,48.8394
2023-03-27T06:01:18.388Z,48.8471
2023-03-27T06:02:21.517Z,49.0236
2023-03-27T06:03:21.876Z,49.2838
2023-03-27T06:04:23.358Z,49.1707
2023-03-27T06:05:25.023Z,48.9546
2023-03-27T06:06:26.637Z,48.9604
2023-03-27T06:07:28.305Z,49.2220
2023-03-27T06:08:29.933Z,49.1548
2023-03-27T06:09:31.583Z,49.1580
2023-03-27T06:10:33.250Z,48.9326
2023-03-27T06:11:34.889Z,48.8819
2023-03-27T06:12:36.526Z,48.9248
2023-03-27T06:13:38.260Z,48.9302
2023-03-27T06:14:39.906Z,48.9003
2023-03-27T06:15:41.635Z,48.8324
2023-03-27T06:16:43.201Z,48.8334
2023-03-27T06:17:44.894Z,48.9067
2023-03-27T06:18:46.498Z,48.9298
2023-03-27T06:19:48.184Z,48.9074
2023-03-27T06:20:49.815Z,48.8734
2023-03-27T06:21:51.460Z,48.7799
2023-03-27T06:22:53.104Z,48.7949
2023-03-27T06:23:54.763Z,48.8324
2023-03-27T06:24:56.389Z,48.8330
2023-03-27T06:25:58.378Z,48.8939
2023-03-27T06:26:59.691Z,48.8412
2023-03-27T06:28:01.364Z,48.8350
2023-03-27T06:29:08.142Z,48.8305
2023-03-27T06:30:04.676Z,48.7892
2023-03-27T06:31:06.355Z,48.8190
2023-03-27T06:32:07.981Z,48.8480
2023-03-27T06:33:09.621Z,48.8471
2023-03-27T06:34:11.284Z,48.7779
2023-03-27T06:35:12.896Z,48.8006
2023-03-27T06:36:14.625Z,48.8698
2023-03-27T06:37:16.181Z,48.8415
2023-03-27T06:38:17.862Z,48.8353
2023-03-27T06:39:19.479Z,48.8244
2023-03-27T06:40:21.139Z,48.7561
2023-03-27T06:41:22.802Z,48.7030
2023-03-27T06:42:24.445Z,48.6671
2023-03-27T06:43:26.075Z,48.7036
2023-03-27T06:44:27.738Z,48.7232
2023-03-27T06:45:29.393Z,48.6980
2023-03-27T06:46:42.688Z,48.7053
2023-03-27T06:47:36.382Z,48.6937
2023-03-27T06:48:34.366Z,48.6851
2023-03-27T06:49:35.975Z,48.7131
2023-03-27T06:50:37.629Z,48.6890
2023-03-27T06:51:39.281Z,48.6969
2023-03-27T06:52:40.928Z,48.7018
2023-03-27T06:53:42.558Z,48.6575
2023-03-27T06:54:44.216Z,48.6352
2023-03-27T06:55:45.868Z,48.6482
2023-03-27T06:56:47.610Z,48.6326
2023-03-27T06:57:49.166Z,48.6985
2023-03-27T06:58:50.836Z,48.6844
2023-03-27T06:59:52.488Z,48.7029
2023-03-27T07:00:54.129Z,48.6513
2023-03-27T07:01:55.830Z,48.6534
2023-03-27T07:02:57.420Z,48.6386
2023-03-27T07:03:59.065Z,48.6074
2023-03-27T07:05:04.649Z,48.6243
2023-03-27T07:06:02.556Z,48.6356
2023-03-27T07:07:04.049Z,48.6163
2023-03-27T07:08:18.997Z,48.6233
2023-03-27T07:09:07.318Z,48.6253
2023-03-27T07:10:08.962Z,48.6703
2023-03-27T07:11:12.266Z,48.6330
2023-03-27T07:12:12.278Z,48.6211
2023-03-27T07:13:13.919Z,48.6184
2023-03-27T07:14:15.589Z,48.6147
2023-03-27T07:15:17.295Z,48.6474
2023-03-27T07:16:18.892Z,48.6114
2023-03-27T07:17:20.532Z,48.6305
2023-03-27T07:18:22.216Z,48.6130
2023-03-27T07:19:23.822Z,48.6608
2023-03-27T07:20:25.473Z,48.6491
2023-03-27T07:21:27.137Z,48.6317
2023-03-27T07:22:28.799Z,48.6564
2023-03-27T07:23:30.435Z,48.6768
2023-03-27T07:24:32.060Z,48.6246
2023-03-27T07:25:33.744Z,48.6118
2023-03-27T07:26:35.354Z,48.6023
2023-03-27T07:27:37.063Z,48.5830
2023-03-27T07:28:38.729Z,48.5905
2023-03-27T07:29:40.337Z,48.5759
2023-03-27T07:30:41.983Z,48.5843
2023-03-27T07:31:57.525Z,48.5766
2023-03-27T07:32:45.408Z,48.5398
2023-03-27T07:33:47.068Z,48.5651
2023-03-27T07:34:48.579Z,48.6140
2023-03-27T07:35:50.256Z,48.5904
2023-03-27T07:36:51.894Z,48.6233
2023-03-27T07:37:53.579Z,48.6175
2023-03-27T07:38:55.184Z,48.6163
2023-03-27T07:39:56.847Z,48.6435
2023-03-27T07:40:58.504Z,48.6282
2023-03-27T07:42:00.164Z,48.6643
2023-03-27T07:43:01.834Z,48.6347
2023-03-27T07:44:03.464Z,48.6059
2023-03-27T07:45:05.090Z,48.5987
2023-03-27T07:46:06.803Z,48.5945
2023-03-27T07:47:08.397Z,48.5826
2023-03-27T07:48:10.087Z,48.5681
2023-03-27T07:49:11.685Z,48.5586
2023-03-27T07:50:13.380Z,48.5414
2023-03-27T07:51:14.982Z,48.5382
2023-03-27T07:52:16.738Z,48.5763
2023-03-27T07:53:32.806Z,48.5829
2023-03-27T07:54:19.945Z,48.5683
2023-03-27T07:55:21.582Z,48.5621
2023-03-27T07:56:23.276Z,48.5971
2023-03-27T07:57:25.041Z,48.5887
2023-03-27T07:58:26.857Z,48.5848
2023-03-27T07:59:28.197Z,48.5648
2023-03-27T08:00:29.980Z,48.5658
2023-03-27T08:01:31.480Z,48.5818
2023-03-27T08:02:33.188Z,48.5642
2023-03-27T08:03:34.922Z,48.5669
2023-03-27T08:04:36.584Z,48.5321
2023-03-27T08:05:38.080Z,48.5282
2023-03-27T08:06:39.751Z,48.5319
2023-03-27T08:07:41.389Z,48.5689
2023-03-27T08:08:43.092Z,48.5501
2023-03-27T08:09:44.697Z,48.5874
2023-03-27T08:10:46.361Z,48.5987
2023-03-27T08:11:48.010Z,48.5989
2023-03-27T08:12:49.668Z,48.5931
2023-03-27T08:13:51.330Z,48.6114
2023-03-27T08:14:52.968Z,48.5880
2023-03-27T08:15:54.750Z,48.5438
2023-03-27T08:17:08.648Z,48.5691
2023-03-27T08:17:57.937Z,48.6242
2023-03-27T08:18:59.640Z,48.6778
2023-03-27T08:20:01.226Z,48.6392
2023-03-27T08:21:02.957Z,48.6147
2023-03-27T08:22:04.501Z,48.6026
2023-03-27T08:23:06.191Z,48.6437
2023-03-27T08:24:07.833Z,48.6218
2023-03-27T08:25:09.502Z,48.6160
2023-03-27T08:26:11.101Z,48.6604
2023-03-27T08:27:12.798Z,48.6329
2023-03-27T08:28:14.433Z,48.6228
2023-03-27T08:29:16.138Z,48.6186
2023-03-27T08:30:17.794Z,48.6564
2023-03-27T08:31:19.487Z,48.6568
2023-03-27T08:32:21.035Z,48.6912
2023-03-27T08:33:22.739Z,48.7370
2023-03-27T08:34:24.397Z,48.6388
2023-03-27T08:35:26.026Z,48.6121
2023-03-27T08:36:27.632Z,48.6108
2023-03-27T08:37:29.265Z,48.5778
2023-03-27T08:38:30.964Z,48.6198
2023-03-27T08:39:32.630Z,48.6320
2023-03-27T08:40:34.219Z,48.7040
2023-03-27T08:41:35.882Z,48.7493
2023-03-27T08:42:37.556Z,48.6705
2023-03-27T08:43:39.142Z,48.6861
2023-03-27T08:44:40.873Z,48.6696
2023-03-27T08:45:42.470Z,48.6712
2023-03-27T08:46:44.136Z,48.5935
2023-03-27T08:48:48.556Z,48.5961
2023-03-27T08:49:50.144Z,48.5483
2023-03-27T08:50:51.817Z,48.5769
2023-03-27T08:51:53.406Z,48.6476
2023-03-27T08:52:55.059Z,48.5956
2023-03-27T08:53:56.719Z,48.6101
2023-03-27T08:54:58.502Z,48.6032
2023-03-27T08:56:00.003Z,48.6749
2023-03-27T08:57:01.759Z,48.5824
2023-03-27T08:58:03.334Z,48.5742
2023-03-27T08:59:04.992Z,48.6133
2023-03-27T09:00:06.650Z,48.6000
2023-03-27T09:01:08.301Z,48.6249
2023-03-27T09:02:09.989Z,48.6229
2023-03-27T09:03:11.721Z,48.6287
2023-03-27T09:04:13.218Z,48.6590
2023-03-27T09:05:14.931Z,48.6642
2023-03-27T09:06:16.567Z,48.6706
2023-03-27T09:07:18.188Z,48.6530
2023-03-27T09:08:19.804Z,48.6433
2023-03-27T09:09:21.461Z,48.6367
2023-03-27T09:10:23.199Z,48.6047
2023-03-27T09:11:24.804Z,48.6345
2023-03-27T09:12:26.430Z,48.6071
2023-03-27T09:13:28.027Z,48.6458
2023-03-27T09:14:29.686Z,48.6574
2023-03-27T09:15:31.384Z,48.6725
2023-03-27T09:16:33.122Z,48.6405
2023-03-27T09:17:34.683Z,48.6502
2023-03-27T09:18:36.316Z,48.6265
2023-03-27T09:19:37.947Z,48.6722
2023-03-27T09:20:39.662Z,48.6982
2023-03-27T09:21:41.229Z,48.7341
2023-03-27T09:22:42.904Z,48.7016
2023-03-27T09:23:44.523Z,48.7010
2023-03-27T09:24:46.236Z,48.6631
2023-03-27T09:25:47.926Z,48.6428
2023-03-27T09:27:01.072Z,48.6464
2023-03-27T09:27:51.132Z,48.7172
2023-03-27T09:28:52.806Z,48.6910
2023-03-27T09:30:05.960Z,48.6495
2023-03-27T09:30:56.226Z,48.6220
2023-03-27T09:31:57.744Z,48.6588
2023-03-27T09:32:59.448Z,48.6853
2023-03-27T09:34:01.001Z,48.7201
2023-03-27T09:35:02.752Z,48.6302
2023-03-27T09:36:04.460Z,48.6464
2023-03-27T09:37:06.056Z,48.6182
2023-03-27T09:38:07.640Z,48.6236
2023-03-27T09:39:09.314Z,48.6168
2023-03-27T09:40:10.954Z,48.6827
2023-03-27T09:41:12.634Z,48.6597
2023-03-27T09:42:14.238Z,48.6706
2023-03-27T09:43:15.920Z,48.6821
2023-03-27T09:44:17.596Z,48.7309
2023-03-27T09:45:19.301Z,48.6667
2023-03-27T09:46:20.933Z,48.7126
2023-03-27T09:47:22.520Z,48.6742
2023-03-27T09:48:24.185Z,48.7005
2023-03-27T09:49:25.814Z,48.7093
2023-03-27T09:50:27.945Z,48.6759
2023-03-27T09:51:29.269Z,48.6751
2023-03-27T09:52:30.711Z,48.6402
2023-03-27T09:53:32.434Z,48.6772
2023-03-27T09:54:34.058Z,48.6973
2023-03-27T09:55:35.717Z,48.7268
2023-03-27T09:56:37.392Z,48.7045
2023-03-27T09:57:39.077Z,48.6779
2023-03-27T09:58:40.678Z,48.6687
2023-03-27T09:59:42.307Z,48.6892
2023-03-27T10:00:44.031Z,48.7400
2023-03-27T10:01:45.632Z,48.7667
2023-03-27T10:02:47.297Z,48.7543
2023-03-27T10:03:49.108Z,48.7154
2023-03-27T10:04:50.548Z,48.7236
2023-03-27T10:05:52.216Z,48.7372
2023-03-27T10:06:53.852Z,48.7104
2023-03-27T10:07:55.522Z,48.7298
2023-03-27T10:08:57.165Z,48.7111
2023-03-27T10:09:58.836Z,48.7741
2023-03-27T10:11:00.485Z,48.7109
2023-03-27T10:12:02.190Z,48.6515
2023-03-27T10:13:03.767Z,48.6536
2023-03-27T10:14:05.454Z,48.7454
2023-03-27T10:15:07.112Z,48.7388
2023-03-27T10:16:08.837Z,48.7155
2023-03-27T10:17:10.450Z,48.6681
2023-03-27T10:18:12.199Z,48.6823
2023-03-27T10:19:13.855Z,48.6739
2023-03-27T10:20:15.491Z,48.6276
2023-03-27T10:21:17.100Z,48.6123
2023-03-27T10:22:18.766Z,48.6601
2023-03-27T10:23:20.359Z,48.6771
2023-03-27T10:24:22.005Z,48.6710
2023-03-27T10:25:23.678Z,48.6723
2023-03-27T10:26:25.343Z,48.6527
2023-03-27T10:27:26.976Z,48.6465
2023-03-27T10:28:28.609Z,48.5833
2023-03-27T10:29:30.262Z,48.6235
2023-03-27T10:30:31.912Z,48.6070
2023-03-27T10:31:33.588Z,48.6329
2023-03-27T10:32:35.268Z,48.6292
2023-03-27T10:33:36.885Z,48.6449
2023-03-27T10:34:38.517Z,48.6466
2023-03-27T10:35:40.179Z,48.6264
2023-03-27T10:36:41.842Z,48.6216
2023-03-27T10:37:49.773Z,48.6438
2023-03-27T10:38:45.132Z,48.6325
2023-03-27T10:39:46.756Z,48.6142
2023-03-27T10:40:48.426Z,48.6175
2023-03-27T10:41:50.067Z,48.6385
2023-03-27T10:42:51.782Z,48.6609
2023-03-27T10:43:53.360Z,48.6942
2023-03-27T10:44:55.030Z,48.6398
2023-03-27T10:45:56.764Z,48.6588
2023-03-27T10:46:58.347Z,48.7008
2023-03-27T10:48:00.038Z,48.6614
2023-03-27T10:49:01.635Z,48.6725
2023-03-27T10:50:03.267Z,48.7439
2023-03-27T10:51:04.945Z,48.7066
2023-03-27T10:52:06.560Z,48.7199
2023-03-27T10:53:08.336Z,48.7059
2023-03-27T10:54:09.902Z,48.6988
2023-03-27T10:55:11.537Z,48.7228
2023-03-27T10:56:13.176Z,48.7242
2023-03-27T10:57:14.868Z,48.7933
2023-03-27T10:58:16.481Z,48.8203
2023-03-27T10:59:21.509Z,48.8344
2023-03-27T11:00:19.763Z,48.7602
2023-03-27T11:01:21.505Z,48.7441
2023-03-27T11:02:23.115Z,48.7701
2023-03-27T11:03:24.807Z,48.7987
2023-03-27T11:04:26.378Z,48.8447
2023-03-27T11:05:28.092Z,48.8378
2023-03-27T11:06:29.698Z,48.8780
2023-03-27T11:07:31.369Z,48.7761
2023-03-27T11:08:33.062Z,48.7563
2023-03-27T11:09:34.708Z,48.8036
2023-03-27T11:10:36.320Z,48.8109
2023-03-27T11:11:38.031Z,48.8096
2023-03-27T11:12:39.608Z,48.8396
2023-03-27T11:13:41.279Z,48.7797
2023-03-27T11:14:42.917Z,48.8057
2023-03-27T11:15:44.608Z,48.8026
2023-03-27T11:16:46.242Z,48.7735
2023-03-27T11:17:47.905Z,48.8169
2023-03-27T11:18:49.573Z,48.8128
2023-03-27T11:19:51.176Z,48.7852
2023-03-27T11:20:52.789Z,48.7804
2023-03-27T11:21:54.485Z,48.7912
2023-03-27T11:22:56.138Z,48.8495
2023-03-27T11:23:57.926Z,48.8168
2023-03-27T11:24:59.429Z,48.8507
2023-03-27T11:26:01.075Z,48.8252
2023-03-27T11:27:02.754Z,48.8653
2023-03-27T11:28:04.444Z,48.8573
2023-03-27T11:29:06.059Z,48.9083
2023-03-27T11:30:07.705Z,48.8680
2023-03-27T11:31:12.112Z,48.8406
2023-03-27T11:32:10.995Z,48.8319
2023-03-27T11:33:12.608Z,48.8315
2023-03-27T11:34:14.345Z,48.8275
2023-03-27T11:35:15.923Z,48.8037
2023-03-27T11:36:17.619Z,48.8200
2023-03-27T11:37:19.217Z,48.8555
2023-03-27T11:38:20.911Z,48.8785
2023-03-27T11:39:22.626Z,48.9350
2023-03-27T11:40:24.232Z,48.8799
2023-03-27T11:41:25.847Z,48.9007
2023-03-27T11:42:27.604Z,48.8611
2023-03-27T11:43:29.135Z,48.8576
2023-03-27T11:44:30.847Z,48.8806
2023-03-27T11:45:32.452Z,48.8746
2023-03-27T11:46:34.168Z,48.8415
2023-03-27T11:47:35.759Z,48.8587
2023-03-27T11:48:37.394Z,48.8591
2023-03-27T11:49:39.141Z,48.8574
2023-03-27T11:50:40.750Z,48.8368
2023-03-27T11:51:42.403Z,48.8736
2023-03-27T11:52:43.997Z,48.8399
2023-03-27T11:53:45.684Z,48.8438
2023-03-27T11:54:47.379Z,48.8290
2023-03-27T11:55:49.008Z,48.8573
2023-03-27T11:56:50.643Z,48.8609
2023-03-27T11:57:52.278Z,48.8950
2023-03-27T11:58:53.917Z,48.8312
2023-03-27T11:59:55.616Z,48.8104
2023-03-27T12:00:57.393Z,48.8008
2023-03-27T12:01:58.936Z,48.8244
2023-03-27T12:03:00.574Z,48.8610
2023-03-27T12:04:02.320Z,48.8879
2023-03-27T12:05:03.866Z,48.8366
2023-03-27T12:06:05.556Z,48.8595
2023-03-27T12:07:09.836Z,48.8445
2023-03-27T12:08:08.790Z,48.7952
2023-03-27T12:09:10.428Z,48.8177
2023-03-27T12:10:12.140Z,48.8573
2023-03-27T12:11:13.716Z,48.8555
2023-03-27T12:12:15.391Z,48.8209
2023-03-27T12:13:17.021Z,48.7994
2023-03-27T12:14:19.140Z,48.8155
2023-03-27T12:15:20.421Z,48.8458
2023-03-27T12:16:22.092Z,48.8086
2023-03-27T12:17:23.725Z,48.7698
2023-03-27T12:18:35.277Z,48.8216
2023-03-27T12:19:29.680Z,48.8340
2023-03-27T12:20:28.745Z,48.8378
2023-03-27T12:21:30.330Z,48.8460
2023-03-27T12:22:31.921Z,48.8777
2023-03-27T12:23:33.522Z,48.8944
2023-03-27T12:24:35.196Z,48.8965
2023-03-27T12:25:36.931Z,48.8826
2023-03-27T12:26:38.626Z,48.9335